sensor_id;sensor_type;location;lat;lon;timestamp;P1;durP1;ratioP1;P2;durP2;ratioP2
79706;SDS011;69200;53.612;-2.416;2024-01-06T00:00:49;8.03;;;2.10;;
79706;SDS011;69200;53.612;-2.416;2024-01-06T00:03:14;6.43;;;2.08;;
79706;SDS011;69200;53.612;-2.416;2024-01-06T00:05:40;5.07;;;1.70;;
79706;SDS011;69200;53.612;-2.416;2024-01-06T00:08:05;6.05;;;1.83;;
79706;SDS011;69200;53.612;-2.416;2024-01-06T00:10:31;8.57;;;2.30;;
79706;SDS011;69200;53.612;-2.416;2024-01-06T00:12:56;7.80;;;2.50;;
79706;SDS011;69200;53.612;-2.416;2024-01-06T00:15:22;6.53;;;2.42;;
79706;SDS011;69200;53.612;-2.416;2024-01-06T00:17:47;9.25;;;2.92;;
79706;SDS011;69200;53.612;-2.416;2024-01-06T00:20:13;9.05;;;2.75;;
79706;SDS011;69200;53.612;-2.416;2024-01-06T00:22:38;6.13;;;2.70;;
79706;SDS011;69200;53.612;-2.416;2024-01-06T00:25:03;9.63;;;3.00;;
79706;SDS011;69200;53.612;-2.416;2024-01-06T00:27:29;6.68;;;3.03;;
79706;SDS011;69200;53.612;-2.416;2024-01-06T00:29:54;6.13;;;2.37;;
79706;SDS011;69200;53.612;-2.416;2024-01-06T00:32:19;9.17;;;2.50;;
79706;SDS011;69200;53.612;-2.416;2024-01-06T00:34:44;7.13;;;3.00;;
79706;SDS011;69200;53.612;-2.416;2024-01-06T00:37:10;7.50;;;2.80;;
79706;SDS011;69200;53.612;-2.416;2024-01-06T00:39:35;6.40;;;2.37;;
79706;SDS011;69200;53.612;-2.416;2024-01-06T00:42:00;6.03;;;2.58;;
79706;SDS011;69200;53.612;-2.416;2024-01-06T00:44:26;5.60;;;2.47;;
79706;SDS011;69200;53.612;-2.416;2024-01-06T00:46:51;8.63;;;2.50;;
79706;SDS011;69200;53.612;-2.416;2024-01-06T00:49:16;7.03;;;3.17;;
79706;SDS011;69200;53.612;-2.416;2024-01-06T00:51:41;8.53;;;2.80;;
79706;SDS011;69200;53.612;-2.416;2024-01-06T00:54:07;6.50;;;2.17;;
79706;SDS011;69200;53.612;-2.416;2024-01-06T00:56:32;7.87;;;2.13;;
79706;SDS011;69200;53.612;-2.416;2024-01-06T00:58:57;6.23;;;2.07;;
79706;SDS011;69200;53.612;-2.416;2024-01-06T01:01:22;9.90;;;2.80;;
79706;SDS011;69200;53.612;-2.416;2024-01-06T01:03:47;6.63;;;2.13;;
79706;SDS011;69200;53.612;-2.416;2024-01-06T01:06:13;8.03;;;2.43;;
79706;SDS011;69200;53.612;-2.416;2024-01-06T01:08:38;6.83;;;2.80;;
79706;SDS011;69200;53.612;-2.416;2024-01-06T01:11:03;6.87;;;2.63;;
79706;SDS011;69200;53.612;-2.416;2024-01-06T01:13:29;6.77;;;2.80;;
79706;SDS011;69200;53.612;-2.416;2024-01-06T01:15:54;9.90;;;2.77;;
79706;SDS011;69200;53.612;-2.416;2024-01-06T01:18:19;8.67;;;2.67;;
79706;SDS011;69200;53.612;-2.416;2024-01-06T01:20:44;8.37;;;3.10;;
79706;SDS011;69200;53.612;-2.416;2024-01-06T01:23:10;6.60;;;2.42;;
79706;SDS011;69200;53.612;-2.416;2024-01-06T01:25:35;7.00;;;2.33;;
79706;SDS011;69200;53.612;-2.416;2024-01-06T01:28:00;6.93;;;2.30;;
79706;SDS011;69200;53.612;-2.416;2024-01-06T01:30:25;6.50;;;2.47;;
79706;SDS011;69200;53.612;-2.416;2024-01-06T01:32:51;5.75;;;2.40;;
79706;SDS011;69200;53.612;-2.416;2024-01-06T01:35:16;5.37;;;2.13;;
79706;SDS011;69200;53.612;-2.416;2024-01-06T01:37:41;7.63;;;2.22;;
79706;SDS011;69200;53.612;-2.416;2024-01-06T01:40:07;6.43;;;2.67;;
79706;SDS011;69200;53.612;-2.416;2024-01-06T01:42:32;5.40;;;2.20;;
79706;SDS011;69200;53.612;-2.416;2024-01-06T01:44:58;6.90;;;2.53;;
79706;SDS011;69200;53.612;-2.416;2024-01-06T01:47:23;7.22;;;2.35;;
79706;SDS011;69200;53.612;-2.416;2024-01-06T01:49:48;6.97;;;2.08;;
79706;SDS011;69200;53.612;-2.416;2024-01-06T01:52:14;4.53;;;1.80;;
79706;SDS011;69200;53.612;-2.416;2024-01-06T01:54:40;10.35;;;2.78;;
79706;SDS011;69200;53.612;-2.416;2024-01-06T01:57:05;6.78;;;2.13;;
79706;SDS011;69200;53.612;-2.416;2024-01-06T01:59:31;5.45;;;1.88;;
79706;SDS011;69200;53.612;-2.416;2024-01-06T02:01:56;6.90;;;2.07;;
79706;SDS011;69200;53.612;-2.416;2024-01-06T02:04:21;8.50;;;2.07;;
79706;SDS011;69200;53.612;-2.416;2024-01-06T02:06:47;7.13;;;2.35;;
79706;SDS011;69200;53.612;-2.416;2024-01-06T02:09:12;5.63;;;2.17;;
79706;SDS011;69200;53.612;-2.416;2024-01-06T02:11:38;7.63;;;2.20;;
79706;SDS011;69200;53.612;-2.416;2024-01-06T02:14:03;6.93;;;2.22;;
79706;SDS011;69200;53.612;-2.416;2024-01-06T02:16:28;7.20;;;2.60;;
79706;SDS011;69200;53.612;-2.416;2024-01-06T02:18:54;8.60;;;2.57;;
79706;SDS011;69200;53.612;-2.416;2024-01-06T02:21:19;8.33;;;2.73;;
79706;SDS011;69200;53.612;-2.416;2024-01-06T02:23:46;7.43;;;2.75;;
79706;SDS011;69200;53.612;-2.416;2024-01-06T02:26:12;6.03;;;2.20;;
79706;SDS011;69200;53.612;-2.416;2024-01-06T02:28:39;9.27;;;2.50;;
79706;SDS011;69200;53.612;-2.416;2024-01-06T02:31:04;8.93;;;2.70;;
79706;SDS011;69200;53.612;-2.416;2024-01-06T02:33:29;6.80;;;2.23;;
79706;SDS011;69200;53.612;-2.416;2024-01-06T02:35:55;7.10;;;2.60;;
79706;SDS011;69200;53.612;-2.416;2024-01-06T02:38:20;7.33;;;2.43;;
79706;SDS011;69200;53.612;-2.416;2024-01-06T02:40:45;8.37;;;2.60;;
79706;SDS011;69200;53.612;-2.416;2024-01-06T02:43:10;7.73;;;2.30;;
79706;SDS011;69200;53.612;-2.416;2024-01-06T02:45:36;6.13;;;2.17;;
79706;SDS011;69200;53.612;-2.416;2024-01-06T02:48:01;6.63;;;2.10;;
79706;SDS011;69200;53.612;-2.416;2024-01-06T02:50:26;8.33;;;2.27;;
79706;SDS011;69200;53.612;-2.416;2024-01-06T02:52:51;11.33;;;2.20;;
79706;SDS011;69200;53.612;-2.416;2024-01-06T02:55:16;7.50;;;1.77;;
79706;SDS011;69200;53.612;-2.416;2024-01-06T02:57:42;6.00;;;1.73;;
79706;SDS011;69200;53.612;-2.416;2024-01-06T03:00:07;6.57;;;1.87;;
79706;SDS011;69200;53.612;-2.416;2024-01-06T03:02:33;5.80;;;1.95;;
79706;SDS011;69200;53.612;-2.416;2024-01-06T03:04:58;7.30;;;1.30;;
79706;SDS011;69200;53.612;-2.416;2024-01-06T03:07:23;7.60;;;1.33;;
79706;SDS011;69200;53.612;-2.416;2024-01-06T03:09:49;5.30;;;1.20;;
79706;SDS011;69200;53.612;-2.416;2024-01-06T03:12:14;5.20;;;1.30;;
79706;SDS011;69200;53.612;-2.416;2024-01-06T03:14:39;4.40;;;1.20;;
79706;SDS011;69200;53.612;-2.416;2024-01-06T03:17:04;2.60;;;1.10;;
79706;SDS011;69200;53.612;-2.416;2024-01-06T03:19:30;3.80;;;1.30;;
79706;SDS011;69200;53.612;-2.416;2024-01-06T03:21:55;5.35;;;1.30;;
79706;SDS011;69200;53.612;-2.416;2024-01-06T03:24:21;4.90;;;1.42;;
79706;SDS011;69200;53.612;-2.416;2024-01-06T03:26:46;6.53;;;1.33;;
79706;SDS011;69200;53.612;-2.416;2024-01-06T03:29:12;8.47;;;1.83;;
79706;SDS011;69200;53.612;-2.416;2024-01-06T03:31:37;3.83;;;1.30;;
79706;SDS011;69200;53.612;-2.416;2024-01-06T03:34:02;6.30;;;1.10;;
79706;SDS011;69200;53.612;-2.416;2024-01-06T03:36:28;3.85;;;1.08;;
79706;SDS011;69200;53.612;-2.416;2024-01-06T03:38:53;4.17;;;1.00;;
79706;SDS011;69200;53.612;-2.416;2024-01-06T03:41:18;3.35;;;1.08;;
79706;SDS011;69200;53.612;-2.416;2024-01-06T03:43:44;4.33;;;1.00;;
79706;SDS011;69200;53.612;-2.416;2024-01-06T03:46:09;4.97;;;1.00;;
79706;SDS011;69200;53.612;-2.416;2024-01-06T03:48:34;4.27;;;1.07;;
79706;SDS011;69200;53.612;-2.416;2024-01-06T03:51:00;5.00;;;1.05;;
79706;SDS011;69200;53.612;-2.416;2024-01-06T03:53:25;4.25;;;1.23;;
79706;SDS011;69200;53.612;-2.416;2024-01-06T03:55:50;4.17;;;1.00;;
79706;SDS011;69200;53.612;-2.416;2024-01-06T03:58:17;5.35;;;1.33;;
79706;SDS011;69200;53.612;-2.416;2024-01-06T04:00:42;4.80;;;0.97;;
79706;SDS011;69200;53.612;-2.416;2024-01-06T04:03:07;3.17;;;0.83;;
79706;SDS011;69200;53.612;-2.416;2024-01-06T04:05:33;2.30;;;0.70;;
79706;SDS011;69200;53.612;-2.416;2024-01-06T04:07:59;1.67;;;0.50;;
79706;SDS011;69200;53.612;-2.416;2024-01-06T04:10:24;2.77;;;0.83;;
79706;SDS011;69200;53.612;-2.416;2024-01-06T04:12:49;6.33;;;1.00;;
79706;SDS011;69200;53.612;-2.416;2024-01-06T04:15:14;6.43;;;1.23;;
79706;SDS011;69200;53.612;-2.416;2024-01-06T04:17:40;3.90;;;0.90;;
79706;SDS011;69200;53.612;-2.416;2024-01-06T04:20:05;5.13;;;1.00;;
79706;SDS011;69200;53.612;-2.416;2024-01-06T04:22:30;3.75;;;1.38;;
79706;SDS011;69200;53.612;-2.416;2024-01-06T04:24:56;5.65;;;1.50;;
79706;SDS011;69200;53.612;-2.416;2024-01-06T04:27:21;6.40;;;1.50;;
79706;SDS011;69200;53.612;-2.416;2024-01-06T04:29:46;5.43;;;1.17;;
79706;SDS011;69200;53.612;-2.416;2024-01-06T04:32:12;5.40;;;1.30;;
79706;SDS011;69200;53.612;-2.416;2024-01-06T04:34:37;3.00;;;0.90;;
79706;SDS011;69200;53.612;-2.416;2024-01-06T04:37:02;4.47;;;1.10;;
79706;SDS011;69200;53.612;-2.416;2024-01-06T04:39:27;6.25;;;1.35;;
79706;SDS011;69200;53.612;-2.416;2024-01-06T04:41:53;8.87;;;1.50;;
79706;SDS011;69200;53.612;-2.416;2024-01-06T04:44:20;5.70;;;1.40;;
79706;SDS011;69200;53.612;-2.416;2024-01-06T04:46:45;5.57;;;1.52;;
79706;SDS011;69200;53.612;-2.416;2024-01-06T04:49:10;3.97;;;1.23;;
79706;SDS011;69200;53.612;-2.416;2024-01-06T04:51:35;2.93;;;1.10;;
79706;SDS011;69200;53.612;-2.416;2024-01-06T04:54:00;7.13;;;1.27;;
79706;SDS011;69200;53.612;-2.416;2024-01-06T04:56:26;5.53;;;1.13;;
79706;SDS011;69200;53.612;-2.416;2024-01-06T04:58:51;6.57;;;1.27;;
79706;SDS011;69200;53.612;-2.416;2024-01-06T05:01:16;7.13;;;1.23;;
79706;SDS011;69200;53.612;-2.416;2024-01-06T05:03:42;3.47;;;1.08;;
79706;SDS011;69200;53.612;-2.416;2024-01-06T05:06:08;4.13;;;1.10;;
79706;SDS011;69200;53.612;-2.416;2024-01-06T05:08:33;5.07;;;1.35;;
79706;SDS011;69200;53.612;-2.416;2024-01-06T05:10:58;3.33;;;1.20;;
79706;SDS011;69200;53.612;-2.416;2024-01-06T05:13:24;3.70;;;1.23;;
79706;SDS011;69200;53.612;-2.416;2024-01-06T05:15:50;3.88;;;1.30;;
79706;SDS011;69200;53.612;-2.416;2024-01-06T05:18:15;4.63;;;1.25;;
79706;SDS011;69200;53.612;-2.416;2024-01-06T05:20:40;3.57;;;1.20;;
79706;SDS011;69200;53.612;-2.416;2024-01-06T05:23:06;4.68;;;1.30;;
79706;SDS011;69200;53.612;-2.416;2024-01-06T05:25:32;4.72;;;1.00;;
79706;SDS011;69200;53.612;-2.416;2024-01-06T05:27:57;4.05;;;1.30;;
79706;SDS011;69200;53.612;-2.416;2024-01-06T05:30:23;5.17;;;1.70;;
79706;SDS011;69200;53.612;-2.416;2024-01-06T05:32:48;7.77;;;1.40;;
79706;SDS011;69200;53.612;-2.416;2024-01-06T05:35:13;3.93;;;1.17;;
79706;SDS011;69200;53.612;-2.416;2024-01-06T05:37:38;5.70;;;1.20;;
79706;SDS011;69200;53.612;-2.416;2024-01-06T05:40:04;4.82;;;1.13;;
79706;SDS011;69200;53.612;-2.416;2024-01-06T05:42:30;5.07;;;1.15;;
79706;SDS011;69200;53.612;-2.416;2024-01-06T05:44:55;5.03;;;0.90;;
79706;SDS011;69200;53.612;-2.416;2024-01-06T05:47:20;8.10;;;1.27;;
79706;SDS011;69200;53.612;-2.416;2024-01-06T05:49:46;4.50;;;1.17;;
79706;SDS011;69200;53.612;-2.416;2024-01-06T05:52:11;4.43;;;1.00;;
79706;SDS011;69200;53.612;-2.416;2024-01-06T05:54:39;2.88;;;1.00;;
79706;SDS011;69200;53.612;-2.416;2024-01-06T05:57:05;8.65;;;1.30;;
79706;SDS011;69200;53.612;-2.416;2024-01-06T05:59:32;8.68;;;1.67;;
79706;SDS011;69200;53.612;-2.416;2024-01-06T06:01:57;7.35;;;2.00;;
79706;SDS011;69200;53.612;-2.416;2024-01-06T06:04:22;4.93;;;1.53;;
79706;SDS011;69200;53.612;-2.416;2024-01-06T06:06:47;5.87;;;1.50;;
79706;SDS011;69200;53.612;-2.416;2024-01-06T06:09:13;3.73;;;1.07;;
79706;SDS011;69200;53.612;-2.416;2024-01-06T06:11:38;9.98;;;1.95;;
79706;SDS011;69200;53.612;-2.416;2024-01-06T06:14:03;9.03;;;1.67;;
79706;SDS011;69200;53.612;-2.416;2024-01-06T06:16:29;8.45;;;1.70;;
79706;SDS011;69200;53.612;-2.416;2024-01-06T06:18:55;4.82;;;2.03;;
79706;SDS011;69200;53.612;-2.416;2024-01-06T06:21:20;12.65;;;1.63;;
79706;SDS011;69200;53.612;-2.416;2024-01-06T06:23:45;4.65;;;1.40;;
79706;SDS011;69200;53.612;-2.416;2024-01-06T06:26:11;5.03;;;1.20;;
79706;SDS011;69200;53.612;-2.416;2024-01-06T06:28:36;4.15;;;0.93;;
79706;SDS011;69200;53.612;-2.416;2024-01-06T06:31:02;4.80;;;0.97;;
79706;SDS011;69200;53.612;-2.416;2024-01-06T06:33:27;2.15;;;0.80;;
79706;SDS011;69200;53.612;-2.416;2024-01-06T06:35:52;3.70;;;0.90;;
79706;SDS011;69200;53.612;-2.416;2024-01-06T06:38:17;7.63;;;1.20;;
79706;SDS011;69200;53.612;-2.416;2024-01-06T06:40:43;6.33;;;1.20;;
79706;SDS011;69200;53.612;-2.416;2024-01-06T06:43:08;4.20;;;1.23;;
79706;SDS011;69200;53.612;-2.416;2024-01-06T06:45:34;6.25;;;1.17;;
79706;SDS011;69200;53.612;-2.416;2024-01-06T06:47:59;5.75;;;1.50;;
79706;SDS011;69200;53.612;-2.416;2024-01-06T06:50:24;4.30;;;1.60;;
79706;SDS011;69200;53.612;-2.416;2024-01-06T06:52:49;4.87;;;1.20;;
79706;SDS011;69200;53.612;-2.416;2024-01-06T06:55:15;6.00;;;1.57;;
79706;SDS011;69200;53.612;-2.416;2024-01-06T06:57:40;3.67;;;1.20;;
79706;SDS011;69200;53.612;-2.416;2024-01-06T07:00:05;12.47;;;1.87;;
79706;SDS011;69200;53.612;-2.416;2024-01-06T07:02:32;6.45;;;1.35;;
79706;SDS011;69200;53.612;-2.416;2024-01-06T07:04:57;5.90;;;1.40;;
79706;SDS011;69200;53.612;-2.416;2024-01-06T07:07:23;3.87;;;1.23;;
79706;SDS011;69200;53.612;-2.416;2024-01-06T07:09:48;4.00;;;1.53;;
79706;SDS011;69200;53.612;-2.416;2024-01-06T07:12:13;3.47;;;1.47;;
79706;SDS011;69200;53.612;-2.416;2024-01-06T07:14:38;5.93;;;1.57;;
79706;SDS011;69200;53.612;-2.416;2024-01-06T07:17:04;4.30;;;1.30;;
79706;SDS011;69200;53.612;-2.416;2024-01-06T07:19:31;4.13;;;1.15;;
79706;SDS011;69200;53.612;-2.416;2024-01-06T07:21:57;7.28;;;1.70;;
79706;SDS011;69200;53.612;-2.416;2024-01-06T07:24:22;11.73;;;1.43;;
79706;SDS011;69200;53.612;-2.416;2024-01-06T07:26:47;4.40;;;1.10;;
79706;SDS011;69200;53.612;-2.416;2024-01-06T07:29:12;6.13;;;1.60;;
79706;SDS011;69200;53.612;-2.416;2024-01-06T07:31:38;3.88;;;1.13;;
79706;SDS011;69200;53.612;-2.416;2024-01-06T07:34:03;3.83;;;1.07;;
79706;SDS011;69200;53.612;-2.416;2024-01-06T07:36:28;7.47;;;1.50;;
79706;SDS011;69200;53.612;-2.416;2024-01-06T07:38:53;2.87;;;0.87;;
79706;SDS011;69200;53.612;-2.416;2024-01-06T07:41:19;3.20;;;1.15;;
79706;SDS011;69200;53.612;-2.416;2024-01-06T07:43:44;3.75;;;0.95;;
79706;SDS011;69200;53.612;-2.416;2024-01-06T07:46:10;7.40;;;1.65;;
79706;SDS011;69200;53.612;-2.416;2024-01-06T07:48:35;6.77;;;1.47;;
79706;SDS011;69200;53.612;-2.416;2024-01-06T07:51:01;5.00;;;1.80;;
79706;SDS011;69200;53.612;-2.416;2024-01-06T07:53:26;7.72;;;1.77;;
79706;SDS011;69200;53.612;-2.416;2024-01-06T07:55:51;7.13;;;1.63;;
79706;SDS011;69200;53.612;-2.416;2024-01-06T07:58:16;8.73;;;1.50;;
79706;SDS011;69200;53.612;-2.416;2024-01-06T08:00:42;5.90;;;1.43;;
79706;SDS011;69200;53.612;-2.416;2024-01-06T08:03:07;3.43;;;1.07;;
79706;SDS011;69200;53.612;-2.416;2024-01-06T08:05:32;2.80;;;1.02;;
79706;SDS011;69200;53.612;-2.416;2024-01-06T08:07:58;3.35;;;0.98;;
79706;SDS011;69200;53.612;-2.416;2024-01-06T08:10:23;3.87;;;1.10;;
79706;SDS011;69200;53.612;-2.416;2024-01-06T08:12:48;5.82;;;1.50;;
79706;SDS011;69200;53.612;-2.416;2024-01-06T08:15:13;4.53;;;1.60;;
79706;SDS011;69200;53.612;-2.416;2024-01-06T08:17:39;5.85;;;1.77;;
79706;SDS011;69200;53.612;-2.416;2024-01-06T08:20:06;4.68;;;1.35;;
79706;SDS011;69200;53.612;-2.416;2024-01-06T08:22:31;8.48;;;2.33;;
79706;SDS011;69200;53.612;-2.416;2024-01-06T08:24:56;6.30;;;1.83;;
79706;SDS011;69200;53.612;-2.416;2024-01-06T08:27:22;4.77;;;1.43;;
79706;SDS011;69200;53.612;-2.416;2024-01-06T08:29:48;7.75;;;1.92;;
79706;SDS011;69200;53.612;-2.416;2024-01-06T08:32:14;10.27;;;2.57;;
79706;SDS011;69200;53.612;-2.416;2024-01-06T08:34:40;5.63;;;2.20;;
79706;SDS011;69200;53.612;-2.416;2024-01-06T08:37:05;8.20;;;2.55;;
79706;SDS011;69200;53.612;-2.416;2024-01-06T08:39:30;6.67;;;1.90;;
79706;SDS011;69200;53.612;-2.416;2024-01-06T08:41:55;6.33;;;2.33;;
79706;SDS011;69200;53.612;-2.416;2024-01-06T08:44:21;5.53;;;1.80;;
79706;SDS011;69200;53.612;-2.416;2024-01-06T08:46:46;5.97;;;1.50;;
79706;SDS011;69200;53.612;-2.416;2024-01-06T08:49:11;5.07;;;1.83;;
79706;SDS011;69200;53.612;-2.416;2024-01-06T08:51:36;10.97;;;2.83;;
79706;SDS011;69200;53.612;-2.416;2024-01-06T08:54:02;6.00;;;1.50;;
79706;SDS011;69200;53.612;-2.416;2024-01-06T08:56:30;13.73;;;2.22;;
79706;SDS011;69200;53.612;-2.416;2024-01-06T08:58:55;4.63;;;1.27;;
79706;SDS011;69200;53.612;-2.416;2024-01-06T09:01:22;5.80;;;1.70;;
79706;SDS011;69200;53.612;-2.416;2024-01-06T09:03:47;4.78;;;1.50;;
79706;SDS011;69200;53.612;-2.416;2024-01-06T09:06:12;5.30;;;1.40;;
79706;SDS011;69200;53.612;-2.416;2024-01-06T09:08:38;4.07;;;1.40;;
79706;SDS011;69200;53.612;-2.416;2024-01-06T09:11:03;8.20;;;1.77;;
79706;SDS011;69200;53.612;-2.416;2024-01-06T09:13:29;6.90;;;1.63;;
79706;SDS011;69200;53.612;-2.416;2024-01-06T09:15:54;6.40;;;1.70;;
79706;SDS011;69200;53.612;-2.416;2024-01-06T09:18:19;6.30;;;1.40;;
79706;SDS011;69200;53.612;-2.416;2024-01-06T09:20:44;4.95;;;1.50;;
79706;SDS011;69200;53.612;-2.416;2024-01-06T09:23:12;4.53;;;1.40;;
79706;SDS011;69200;53.612;-2.416;2024-01-06T09:25:38;6.00;;;1.40;;
79706;SDS011;69200;53.612;-2.416;2024-01-06T09:28:05;4.53;;;1.30;;
79706;SDS011;69200;53.612;-2.416;2024-01-06T09:30:30;5.78;;;1.55;;
79706;SDS011;69200;53.612;-2.416;2024-01-06T09:32:57;4.90;;;1.15;;
79706;SDS011;69200;53.612;-2.416;2024-01-06T09:35:23;4.88;;;1.30;;
79706;SDS011;69200;53.612;-2.416;2024-01-06T09:37:48;3.45;;;1.20;;
79706;SDS011;69200;53.612;-2.416;2024-01-06T09:40:14;6.00;;;1.60;;
79706;SDS011;69200;53.612;-2.416;2024-01-06T09:42:46;7.88;;;1.85;;
79706;SDS011;69200;53.612;-2.416;2024-01-06T09:45:11;8.83;;;1.87;;
79706;SDS011;69200;53.612;-2.416;2024-01-06T09:47:36;3.80;;;1.20;;
79706;SDS011;69200;53.612;-2.416;2024-01-06T09:50:03;3.35;;;1.02;;
79706;SDS011;69200;53.612;-2.416;2024-01-06T09:52:31;7.82;;;1.67;;
79706;SDS011;69200;53.612;-2.416;2024-01-06T09:54:57;5.78;;;1.40;;
79706;SDS011;69200;53.612;-2.416;2024-01-06T09:57:24;5.25;;;1.67;;
79706;SDS011;69200;53.612;-2.416;2024-01-06T09:59:50;5.47;;;1.67;;
79706;SDS011;69200;53.612;-2.416;2024-01-06T10:02:16;6.07;;;2.05;;
79706;SDS011;69200;53.612;-2.416;2024-01-06T10:04:45;9.38;;;1.98;;
79706;SDS011;69200;53.612;-2.416;2024-01-06T10:07:13;7.10;;;1.45;;
79706;SDS011;69200;53.612;-2.416;2024-01-06T10:09:39;6.55;;;1.40;;
79706;SDS011;69200;53.612;-2.416;2024-01-06T10:12:05;5.13;;;1.63;;
79706;SDS011;69200;53.612;-2.416;2024-01-06T10:14:30;5.15;;;1.95;;
79706;SDS011;69200;53.612;-2.416;2024-01-06T10:16:55;6.73;;;2.03;;
79706;SDS011;69200;53.612;-2.416;2024-01-06T10:19:20;4.40;;;1.63;;
79706;SDS011;69200;53.612;-2.416;2024-01-06T10:21:46;4.53;;;1.40;;
79706;SDS011;69200;53.612;-2.416;2024-01-06T10:24:11;8.30;;;1.65;;
79706;SDS011;69200;53.612;-2.416;2024-01-06T10:26:36;5.93;;;2.00;;
79706;SDS011;69200;53.612;-2.416;2024-01-06T10:29:02;5.00;;;1.77;;
79706;SDS011;69200;53.612;-2.416;2024-01-06T10:31:31;4.22;;;1.40;;
79706;SDS011;69200;53.612;-2.416;2024-01-06T10:33:57;6.00;;;1.33;;
79706;SDS011;69200;53.612;-2.416;2024-01-06T10:36:23;5.55;;;1.10;;
79706;SDS011;69200;53.612;-2.416;2024-01-06T10:38:49;6.95;;;1.45;;
79706;SDS011;69200;53.612;-2.416;2024-01-06T10:41:14;4.85;;;1.13;;
79706;SDS011;69200;53.612;-2.416;2024-01-06T10:43:40;4.07;;;1.02;;
79706;SDS011;69200;53.612;-2.416;2024-01-06T10:46:08;5.03;;;1.50;;
79706;SDS011;69200;53.612;-2.416;2024-01-06T10:48:37;9.60;;;1.45;;
79706;SDS011;69200;53.612;-2.416;2024-01-06T10:51:09;6.40;;;1.38;;
79706;SDS011;69200;53.612;-2.416;2024-01-06T10:53:34;4.43;;;1.50;;
79706;SDS011;69200;53.612;-2.416;2024-01-06T10:56:04;5.70;;;1.98;;
79706;SDS011;69200;53.612;-2.416;2024-01-06T10:58:30;5.97;;;1.77;;
79706;SDS011;69200;53.612;-2.416;2024-01-06T11:00:56;4.55;;;1.30;;
79706;SDS011;69200;53.612;-2.416;2024-01-06T11:03:21;9.45;;;1.95;;
79706;SDS011;69200;53.612;-2.416;2024-01-06T11:05:47;6.13;;;1.20;;
79706;SDS011;69200;53.612;-2.416;2024-01-06T11:08:13;4.18;;;1.20;;
79706;SDS011;69200;53.612;-2.416;2024-01-06T11:10:42;5.15;;;1.10;;
79706;SDS011;69200;53.612;-2.416;2024-01-06T11:13:11;3.77;;;1.00;;
79706;SDS011;69200;53.612;-2.416;2024-01-06T11:15:41;8.73;;;0.80;;
79706;SDS011;69200;53.612;-2.416;2024-01-06T11:18:06;5.57;;;0.90;;
79706;SDS011;69200;53.612;-2.416;2024-01-06T11:20:31;4.30;;;0.93;;
79706;SDS011;69200;53.612;-2.416;2024-01-06T11:23:17;4.50;;;1.20;;
79706;SDS011;69200;53.612;-2.416;2024-01-06T11:25:42;5.40;;;1.33;;
79706;SDS011;69200;53.612;-2.416;2024-01-06T11:28:07;3.22;;;1.17;;
79706;SDS011;69200;53.612;-2.416;2024-01-06T11:30:33;7.38;;;2.47;;
79706;SDS011;69200;53.612;-2.416;2024-01-06T11:32:59;5.72;;;2.03;;
79706;SDS011;69200;53.612;-2.416;2024-01-06T11:35:28;8.68;;;2.17;;
79706;SDS011;69200;53.612;-2.416;2024-01-06T11:37:54;6.00;;;2.05;;
79706;SDS011;69200;53.612;-2.416;2024-01-06T11:42:45;6.00;;;1.60;;
79706;SDS011;69200;53.612;-2.416;2024-01-06T11:45:11;6.35;;;1.92;;
79706;SDS011;69200;53.612;-2.416;2024-01-06T11:47:38;9.18;;;1.83;;
79706;SDS011;69200;53.612;-2.416;2024-01-06T11:50:04;3.28;;;1.10;;
79706;SDS011;69200;53.612;-2.416;2024-01-06T11:52:31;10.82;;;1.45;;
79706;SDS011;69200;53.612;-2.416;2024-01-06T11:54:56;4.25;;;1.05;;
79706;SDS011;69200;53.612;-2.416;2024-01-06T11:57:21;3.88;;;0.70;;
79706;SDS011;69200;53.612;-2.416;2024-01-06T11:59:47;7.03;;;1.37;;
79706;SDS011;69200;53.612;-2.416;2024-01-06T12:02:13;6.05;;;0.90;;
79706;SDS011;69200;53.612;-2.416;2024-01-06T12:04:38;1.85;;;0.32;;
79706;SDS011;69200;53.612;-2.416;2024-01-06T12:07:09;3.97;;;0.50;;
79706;SDS011;69200;53.612;-2.416;2024-01-06T12:09:34;0.08;;;0.00;;
79706;SDS011;69200;53.612;-2.416;2024-01-06T12:12:04;3.15;;;0.30;;
79706;SDS011;69200;53.612;-2.416;2024-01-06T12:14:30;3.53;;;0.32;;
79706;SDS011;69200;53.612;-2.416;2024-01-06T12:16:55;2.10;;;0.73;;
79706;SDS011;69200;53.612;-2.416;2024-01-06T12:19:25;0.63;;;0.13;;
79706;SDS011;69200;53.612;-2.416;2024-01-06T12:21:50;1.65;;;0.47;;
79706;SDS011;69200;53.612;-2.416;2024-01-06T12:24:16;3.10;;;0.53;;
79706;SDS011;69200;53.612;-2.416;2024-01-06T12:26:44;3.65;;;0.80;;
79706;SDS011;69200;53.612;-2.416;2024-01-06T12:29:09;4.25;;;1.02;;
79706;SDS011;69200;53.612;-2.416;2024-01-06T12:31:35;2.38;;;0.40;;
79706;SDS011;69200;53.612;-2.416;2024-01-06T12:34:00;4.73;;;0.67;;
79706;SDS011;69200;53.612;-2.416;2024-01-06T12:36:25;7.20;;;0.80;;
79706;SDS011;69200;53.612;-2.416;2024-01-06T12:38:50;9.10;;;0.60;;
79706;SDS011;69200;53.612;-2.416;2024-01-06T12:41:16;1.42;;;0.47;;
79706;SDS011;69200;53.612;-2.416;2024-01-06T12:43:41;3.50;;;1.37;;
79706;SDS011;69200;53.612;-2.416;2024-01-06T12:46:06;3.67;;;0.83;;
79706;SDS011;69200;53.612;-2.416;2024-01-06T12:48:32;5.20;;;1.43;;
79706;SDS011;69200;53.612;-2.416;2024-01-06T12:50:57;4.33;;;1.70;;
79706;SDS011;69200;53.612;-2.416;2024-01-06T12:53:22;7.37;;;1.83;;
79706;SDS011;69200;53.612;-2.416;2024-01-06T12:55:47;0.50;;;0.27;;
79706;SDS011;69200;53.612;-2.416;2024-01-06T12:58:12;1.93;;;0.67;;
79706;SDS011;69200;53.612;-2.416;2024-01-06T13:00:38;7.13;;;1.00;;
79706;SDS011;69200;53.612;-2.416;2024-01-06T13:03:05;3.28;;;0.77;;
79706;SDS011;69200;53.612;-2.416;2024-01-06T13:05:30;5.00;;;0.77;;
79706;SDS011;69200;53.612;-2.416;2024-01-06T13:07:55;4.80;;;0.83;;
79706;SDS011;69200;53.612;-2.416;2024-01-06T13:10:20;8.10;;;1.13;;
79706;SDS011;69200;53.612;-2.416;2024-01-06T13:12:46;1.60;;;0.60;;
79706;SDS011;69200;53.612;-2.416;2024-01-06T13:15:11;2.90;;;0.67;;
79706;SDS011;69200;53.612;-2.416;2024-01-06T13:17:36;3.97;;;0.90;;
79706;SDS011;69200;53.612;-2.416;2024-01-06T13:20:02;6.15;;;1.02;;
79706;SDS011;69200;53.612;-2.416;2024-01-06T13:22:27;6.88;;;0.80;;
79706;SDS011;69200;53.612;-2.416;2024-01-06T13:24:53;2.67;;;0.60;;
79706;SDS011;69200;53.612;-2.416;2024-01-06T13:27:18;3.17;;;0.90;;
79706;SDS011;69200;53.612;-2.416;2024-01-06T13:29:44;5.30;;;1.42;;
79706;SDS011;69200;53.612;-2.416;2024-01-06T13:32:09;4.97;;;1.23;;
79706;SDS011;69200;53.612;-2.416;2024-01-06T13:34:36;9.75;;;1.45;;
79706;SDS011;69200;53.612;-2.416;2024-01-06T13:37:01;3.23;;;0.53;;
79706;SDS011;69200;53.612;-2.416;2024-01-06T13:39:26;6.07;;;1.23;;
79706;SDS011;69200;53.612;-2.416;2024-01-06T13:41:51;2.03;;;0.37;;
79706;SDS011;69200;53.612;-2.416;2024-01-06T13:44:17;4.50;;;0.90;;
79706;SDS011;69200;53.612;-2.416;2024-01-06T13:46:42;4.33;;;1.03;;
79706;SDS011;69200;53.612;-2.416;2024-01-06T13:49:11;7.50;;;0.75;;
79706;SDS011;69200;53.612;-2.416;2024-01-06T13:51:37;0.88;;;0.43;;
79706;SDS011;69200;53.612;-2.416;2024-01-06T13:54:02;3.80;;;1.15;;
79706;SDS011;69200;53.612;-2.416;2024-01-06T13:56:28;4.00;;;0.88;;
79706;SDS011;69200;53.612;-2.416;2024-01-06T13:58:53;4.30;;;0.50;;
79706;SDS011;69200;53.612;-2.416;2024-01-06T14:01:18;7.72;;;0.73;;
79706;SDS011;69200;53.612;-2.416;2024-01-06T14:03:44;2.67;;;0.87;;
79706;SDS011;69200;53.612;-2.416;2024-01-06T14:06:09;2.20;;;0.50;;
79706;SDS011;69200;53.612;-2.416;2024-01-06T14:08:35;2.63;;;0.60;;
79706;SDS011;69200;53.612;-2.416;2024-01-06T14:11:00;3.87;;;0.73;;
79706;SDS011;69200;53.612;-2.416;2024-01-06T14:13:25;3.13;;;0.60;;
79706;SDS011;69200;53.612;-2.416;2024-01-06T14:15:51;5.10;;;0.65;;
79706;SDS011;69200;53.612;-2.416;2024-01-06T14:18:16;8.18;;;1.10;;
79706;SDS011;69200;53.612;-2.416;2024-01-06T14:20:42;2.30;;;0.60;;
79706;SDS011;69200;53.612;-2.416;2024-01-06T14:23:07;3.67;;;0.80;;
79706;SDS011;69200;53.612;-2.416;2024-01-06T14:25:33;4.80;;;1.27;;